PWSweather.com
Personal Weather Stations
Station Observations
SHAHALMS1
Eftra, Falkenberg, HA

EftraFalkenberg, HA

Lat: 56.85, Lon: 12.65

Elevation: 140

Station Type:

http://hem.passagen.se/risarp101

High Low Average
Temperature 61.0°F16.1°C 50.9°F10.5°C 55.4°F13.0°C
Dew Point 50.3°F10.2°C 44.6°F7.0°C 47.9°F8.8°C
Winds 10.8 mph 17.4 kmh 1.9 mph 3.1 kmh 7.0 mph E11.3 kmh E
Wind Gusts 25.8 mph41.5 kmh 4.3 mph6.9 kmh 13.0 mph20.9 kmh
Humidity 83% 67% 76%
Pressure 29.89 in1012.2 mb 29.80 in1009.1 mb -
Precipitation 0.00 in0.0 mm - -
Hour Temp Dew Point Humidity Winds Wind Gusts Pressure Precip Precip Rate Daily Precip Total
12:00 AM 52.0°F11.1°C 45.0°F7.2°C 77% 8.3 mph E13.4 kmh E 13.6 mph21.9 kmh 29.83 in1010.2 mb 0.00 in0.0 mm 0.00 in0.0 mm 0.00 in0.0 mm
12:10 AM 51.8°F11.0°C 44.8°F7.1°C 77% 8.2 mph E13.2 kmh E 15.7 mph25.3 kmh 29.83 in1010.2 mb 0.00 in0.0 mm 0.00 in0.0 mm 0.00 in0.0 mm
12:20 AM 51.6°F10.9°C 45.0°F7.2°C 78% 7.0 mph E11.3 kmh E 12.9 mph20.8 kmh 29.83 in1010.2 mb 0.00 in0.0 mm 0.00 in0.0 mm 0.00 in0.0 mm
12:30 AM 51.4°F10.8°C 44.8°F7.1°C 78% 6.4 mph E10.3 kmh E 10.4 mph16.7 kmh 29.80 in1009.1 mb 0.00 in0.0 mm 0.00 in0.0 mm 0.00 in0.0 mm
12:40 AM 51.3°F10.7°C 44.6°F7.0°C 78% 5.2 mph E8.4 kmh E 9.7 mph15.6 kmh 29.80 in1009.1 mb 0.00 in0.0 mm 0.00 in0.0 mm 0.00 in0.0 mm
12:50 AM 51.1°F10.6°C 44.8°F7.1°C 79% 3.9 mph E6.3 kmh E 9.7 mph15.6 kmh 29.80 in1009.1 mb 0.00 in0.0 mm 0.00 in0.0 mm 0.00 in0.0 mm
01:00 AM 50.9°F10.5°C 44.6°F7.0°C 79% 4.4 mph E7.1 kmh E 8.9 mph14.3 kmh 29.80 in1009.1 mb 0.00 in0.0 mm 0.00 in0.0 mm 0.00 in0.0 mm
01:10 AM 50.9°F10.5°C 44.6°F7.0°C 79% 7.1 mph E11.4 kmh E 12.5 mph20.1 kmh 29.83 in1010.2 mb 0.00 in0.0 mm 0.00 in0.0 mm 0.00 in0.0 mm
01:20 AM 50.9°F10.5°C 44.6°F7.0°C 79% 6.7 mph E10.8 kmh E 11.8 mph19.0 kmh 29.83 in1010.2 mb 0.00 in0.0 mm 0.00 in0.0 mm 0.00 in0.0 mm
01:30 AM 50.9°F10.5°C 44.9°F7.2°C 80% 6.4 mph E10.3 kmh E 12.5 mph20.1 kmh 29.83 in1010.2 mb 0.00 in0.0 mm 0.00 in0.0 mm 0.00 in0.0 mm
01:40 AM 51.1°F10.6°C 45.1°F7.3°C 80% 7.0 mph E11.3 kmh E 12.5 mph20.1 kmh 29.83 in1010.2 mb 0.00 in0.0 mm 0.00 in0.0 mm 0.00 in0.0 mm
01:50 AM 51.3°F10.7°C 45.6°F7.6°C 81% 6.2 mph E10.0 kmh E 10.4 mph16.7 kmh 29.83 in1010.2 mb 0.00 in0.0 mm 0.00 in0.0 mm 0.00 in0.0 mm
02:00 AM 51.4°F10.8°C 45.8°F7.7°C 81% 5.9 mph E9.5 kmh E 10.4 mph16.7 kmh 29.83 in1010.2 mb 0.00 in0.0 mm 0.00 in0.0 mm 0.00 in0.0 mm
02:10 AM 51.6°F10.9°C 46.0°F7.8°C 81% 4.7 mph E7.6 kmh E 8.6 mph13.8 kmh 29.83 in1010.2 mb 0.00 in0.0 mm 0.00 in0.0 mm 0.00 in0.0 mm
02:20 AM 51.8°F11.0°C 46.5°F8.1°C 82% 5.9 mph E9.5 kmh E 12.5 mph20.1 kmh 29.83 in1010.2 mb 0.00 in0.0 mm 0.00 in0.0 mm 0.00 in0.0 mm
02:30 AM 52.0°F11.1°C 46.7°F8.2°C 82% 4.4 mph E7.1 kmh E 10.0 mph16.1 kmh 29.83 in1010.2 mb 0.00 in0.0 mm 0.00 in0.0 mm 0.00 in0.0 mm
02:40 AM 52.0°F11.1°C 46.7°F8.2°C 82% 7.6 mph E12.2 kmh E 12.9 mph20.8 kmh 29.83 in1010.2 mb 0.00 in0.0 mm 0.00 in0.0 mm 0.00 in0.0 mm
02:50 AM 52.2°F11.2°C 46.8°F8.2°C 82% 7.2 mph E11.6 kmh E 10.0 mph16.1 kmh 29.83 in1010.2 mb 0.00 in0.0 mm 0.00 in0.0 mm 0.00 in0.0 mm
03:00 AM 52.2°F11.2°C 46.8°F8.2°C 82% 5.9 mph E9.5 kmh E 10.0 mph16.1 kmh 29.83 in1010.2 mb 0.00 in0.0 mm 0.00 in0.0 mm 0.00 in0.0 mm
03:10 AM 52.2°F11.2°C 46.8°F8.2°C 82% 5.6 mph E9.0 kmh E 9.3 mph15.0 kmh 29.83 in1010.2 mb 0.00 in0.0 mm 0.00 in0.0 mm 0.00 in0.0 mm
03:20 AM 52.0°F11.1°C 46.7°F8.2°C 82% 5.1 mph E8.2 kmh E 10.0 mph16.1 kmh 29.83 in1010.2 mb 0.00 in0.0 mm 0.00 in0.0 mm 0.00 in0.0 mm
03:30 AM 52.0°F11.1°C 46.7°F8.2°C 82% 6.1 mph E9.8 kmh E 10.0 mph16.1 kmh 29.83 in1010.2 mb 0.00 in0.0 mm 0.00 in0.0 mm 0.00 in0.0 mm
03:40 AM 51.8°F11.0°C 46.5°F8.1°C 82% 8.1 mph E13.0 kmh E 12.2 mph19.6 kmh 29.86 in1011.2 mb 0.00 in0.0 mm 0.00 in0.0 mm 0.00 in0.0 mm
03:50 AM 51.6°F10.9°C 46.3°F7.9°C 82% 5.5 mph E8.9 kmh E 9.7 mph15.6 kmh 29.86 in1011.2 mb 0.00 in0.0 mm 0.00 in0.0 mm 0.00 in0.0 mm
04:00 AM 51.6°F10.9°C 46.3°F7.9°C 82% 6.1 mph E9.8 kmh E 9.3 mph15.0 kmh 29.83 in1010.2 mb 0.00 in0.0 mm 0.00 in0.0 mm 0.00 in0.0 mm
04:10 AM 51.4°F10.8°C 46.1°F7.8°C 82% 5.2 mph E8.4 kmh E 8.9 mph14.3 kmh 29.86 in1011.2 mb 0.00 in0.0 mm 0.00 in0.0 mm 0.00 in0.0 mm
04:20 AM 51.4°F10.8°C 46.1°F7.8°C 82% 7.1 mph E11.4 kmh E 12.5 mph20.1 kmh 29.86 in1011.2 mb 0.00 in0.0 mm 0.00 in0.0 mm 0.00 in0.0 mm
04:30 AM 51.4°F10.8°C 46.1°F7.8°C 82% 7.4 mph E11.9 kmh E 11.8 mph19.0 kmh 29.83 in1010.2 mb 0.00 in0.0 mm 0.00 in0.0 mm 0.00 in0.0 mm
04:40 AM 51.4°F10.8°C 46.1°F7.8°C 82% 4.4 mph E7.1 kmh E 6.8 mph10.9 kmh 29.80 in1009.1 mb 0.00 in0.0 mm 0.00 in0.0 mm 0.00 in0.0 mm
04:50 AM 51.4°F10.8°C 46.1°F7.8°C 82% 2.7 mph E4.3 kmh E 8.9 mph14.3 kmh 29.80 in1009.1 mb 0.00 in0.0 mm 0.00 in0.0 mm 0.00 in0.0 mm
05:00 AM 51.4°F10.8°C 46.1°F7.8°C 82% 5.5 mph E8.9 kmh E 8.9 mph14.3 kmh 29.83 in1010.2 mb 0.00 in0.0 mm 0.00 in0.0 mm 0.00 in0.0 mm
05:10 AM 51.4°F10.8°C 46.4°F8.0°C 83% 3.4 mph E5.5 kmh E 5.7 mph9.2 kmh 29.80 in1009.1 mb 0.00 in0.0 mm 0.00 in0.0 mm 0.00 in0.0 mm
05:20 AM 51.4°F10.8°C 46.4°F8.0°C 83% 1.9 mph E3.1 kmh E 4.3 mph6.9 kmh 29.80 in1009.1 mb 0.00 in0.0 mm 0.00 in0.0 mm 0.00 in0.0 mm
05:30 AM 51.4°F10.8°C 46.4°F8.0°C 83% 3.8 mph E6.1 kmh E 9.3 mph15.0 kmh 29.83 in1010.2 mb 0.00 in0.0 mm 0.00 in0.0 mm 0.00 in0.0 mm
05:40 AM 51.4°F10.8°C 46.4°F8.0°C 83% 3.2 mph E5.1 kmh E 5.0 mph8.0 kmh 29.83 in1010.2 mb 0.00 in0.0 mm 0.00 in0.0 mm 0.00 in0.0 mm
05:50 AM 51.3°F10.7°C 46.3°F7.9°C 83% 3.9 mph E6.3 kmh E 6.8 mph10.9 kmh 29.83 in1010.2 mb 0.00 in0.0 mm 0.00 in0.0 mm 0.00 in0.0 mm
06:00 AM 51.3°F10.7°C 46.3°F7.9°C 83% 5.3 mph E8.5 kmh E 6.8 mph10.9 kmh 29.83 in1010.2 mb 0.00 in0.0 mm 0.00 in0.0 mm 0.00 in0.0 mm
06:10 AM 51.3°F10.7°C 46.3°F7.9°C 83% 5.8 mph E9.3 kmh E 9.7 mph15.6 kmh 29.83 in1010.2 mb 0.00 in0.0 mm 0.00 in0.0 mm 0.00 in0.0 mm
06:20 AM 51.3°F10.7°C 46.3°F7.9°C 83% 2.9 mph E4.7 kmh E 6.1 mph9.8 kmh 29.83 in1010.2 mb 0.00 in0.0 mm 0.00 in0.0 mm 0.00 in0.0 mm
06:30 AM 51.4°F10.8°C 46.4°F8.0°C 83% 4.0 mph E6.4 kmh E 5.7 mph9.2 kmh 29.86 in1011.2 mb 0.00 in0.0 mm 0.00 in0.0 mm 0.00 in0.0 mm
06:40 AM 51.4°F10.8°C 46.4°F8.0°C 83% 4.2 mph E6.8 kmh E 5.4 mph8.7 kmh 29.83 in1010.2 mb 0.00 in0.0 mm 0.00 in0.0 mm 0.00 in0.0 mm
06:50 AM 51.6°F10.9°C 46.6°F8.1°C 83% 5.4 mph E8.7 kmh E 10.7 mph17.2 kmh 29.83 in1010.2 mb 0.00 in0.0 mm 0.00 in0.0 mm 0.00 in0.0 mm
07:00 AM 51.8°F11.0°C 46.8°F8.2°C 83% 4.8 mph E7.7 kmh E 9.7 mph15.6 kmh 29.86 in1011.2 mb 0.00 in0.0 mm 0.00 in0.0 mm 0.00 in0.0 mm
07:10 AM 51.8°F11.0°C 46.8°F8.2°C 83% 4.0 mph E6.4 kmh E 5.7 mph9.2 kmh 29.86 in1011.2 mb 0.00 in0.0 mm 0.00 in0.0 mm 0.00 in0.0 mm
07:20 AM 52.0°F11.1°C 47.0°F8.3°C 83% 6.5 mph E10.5 kmh E 11.8 mph19.0 kmh 29.86 in1011.2 mb 0.00 in0.0 mm 0.00 in0.0 mm 0.00 in0.0 mm
07:30 AM 52.2°F11.2°C 47.2°F8.4°C 83% 5.8 mph E9.3 kmh E 8.6 mph13.8 kmh 29.86 in1011.2 mb 0.00 in0.0 mm 0.00 in0.0 mm 0.00 in0.0 mm
07:40 AM 52.3°F11.3°C 47.3°F8.5°C 83% 5.7 mph E9.2 kmh E 8.6 mph13.8 kmh 29.86 in1011.2 mb 0.00 in0.0 mm 0.00 in0.0 mm 0.00 in0.0 mm
07:50 AM 52.7°F11.5°C 47.7°F8.7°C 83% 6.6 mph E10.6 kmh E 9.7 mph15.6 kmh 29.86 in1011.2 mb 0.00 in0.0 mm 0.00 in0.0 mm 0.00 in0.0 mm
08:00 AM 52.9°F11.6°C 47.9°F8.8°C 83% 6.2 mph E10.0 kmh E 10.0 mph16.1 kmh 29.86 in1011.2 mb 0.00 in0.0 mm 0.00 in0.0 mm 0.00 in0.0 mm
08:10 AM 53.1°F11.7°C 48.0°F8.9°C 83% 6.1 mph E9.8 kmh E 9.7 mph15.6 kmh 29.89 in1012.2 mb 0.00 in0.0 mm 0.00 in0.0 mm 0.00 in0.0 mm
08:20 AM 53.2°F11.8°C 47.9°F8.8°C 82% 7.3 mph E11.7 kmh E 15.0 mph24.1 kmh 29.89 in1012.2 mb 0.00 in0.0 mm 0.00 in0.0 mm 0.00 in0.0 mm
08:30 AM 53.8°F12.1°C 48.4°F9.1°C 82% 5.6 mph E9.0 kmh E 14.0 mph22.5 kmh 29.86 in1011.2 mb 0.00 in0.0 mm 0.00 in0.0 mm 0.00 in0.0 mm
08:40 AM 54.0°F12.2°C 48.3°F9.1°C 81% 10.3 mph E16.6 kmh E 16.8 mph27.0 kmh 29.89 in1012.2 mb 0.00 in0.0 mm 0.00 in0.0 mm 0.00 in0.0 mm
08:50 AM 54.1°F12.3°C 48.1°F8.9°C 80% 9.3 mph E15.0 kmh E 16.1 mph25.9 kmh 29.89 in1012.2 mb 0.00 in0.0 mm 0.00 in0.0 mm 0.00 in0.0 mm
09:00 AM 54.1°F12.3°C 48.1°F8.9°C 80% 7.9 mph E12.7 kmh E 12.2 mph19.6 kmh 29.86 in1011.2 mb 0.00 in0.0 mm 0.00 in0.0 mm 0.00 in0.0 mm
09:10 AM 54.5°F12.5°C 48.5°F9.2°C 80% 8.8 mph E14.2 kmh E 17.2 mph27.7 kmh 29.89 in1012.2 mb 0.00 in0.0 mm 0.00 in0.0 mm 0.00 in0.0 mm
09:20 AM 54.9°F12.7°C 48.5°F9.2°C 79% 8.6 mph E13.8 kmh E 14.0 mph22.5 kmh 29.89 in1012.2 mb 0.00 in0.0 mm 0.00 in0.0 mm 0.00 in0.0 mm
09:30 AM 55.2°F12.9°C 48.8°F9.3°C 79% 8.8 mph E14.2 kmh E 14.3 mph23.0 kmh 29.89 in1012.2 mb 0.00 in0.0 mm 0.00 in0.0 mm 0.00 in0.0 mm
09:40 AM 55.6°F13.1°C 49.2°F9.6°C 79% 10.6 mph E17.1 kmh E 16.8 mph27.0 kmh 29.89 in1012.2 mb 0.00 in0.0 mm 0.00 in0.0 mm 0.00 in0.0 mm
09:50 AM 55.8°F13.2°C 48.7°F9.3°C 77% 9.7 mph E15.6 kmh E 19.7 mph31.7 kmh 29.89 in1012.2 mb 0.00 in0.0 mm 0.00 in0.0 mm 0.00 in0.0 mm
10:00 AM 55.9°F13.3°C 48.5°F9.2°C 76% 9.6 mph E15.4 kmh E 13.6 mph21.9 kmh 29.89 in1012.2 mb 0.00 in0.0 mm 0.00 in0.0 mm 0.00 in0.0 mm
10:10 AM 56.1°F13.4°C 48.3°F9.1°C 75% 8.9 mph E14.3 kmh E 17.5 mph28.2 kmh 29.89 in1012.2 mb 0.00 in0.0 mm 0.00 in0.0 mm 0.00 in0.0 mm
10:20 AM 56.3°F13.5°C 48.5°F9.2°C 75% 9.4 mph E15.1 kmh E 16.1 mph25.9 kmh 29.89 in1012.2 mb 0.00 in0.0 mm 0.00 in0.0 mm 0.00 in0.0 mm
10:30 AM 56.7°F13.7°C 48.5°F9.2°C 74% 8.3 mph E13.4 kmh E 17.2 mph27.7 kmh 29.89 in1012.2 mb 0.00 in0.0 mm 0.00 in0.0 mm 0.00 in0.0 mm
10:40 AM 56.8°F13.8°C 48.3°F9.1°C 73% 8.4 mph E13.5 kmh E 15.7 mph25.3 kmh 29.89 in1012.2 mb 0.00 in0.0 mm 0.00 in0.0 mm 0.00 in0.0 mm
10:50 AM 57.2°F14.0°C 49.0°F9.4°C 74% 8.2 mph E13.2 kmh E 12.9 mph20.8 kmh 29.89 in1012.2 mb 0.00 in0.0 mm 0.00 in0.0 mm 0.00 in0.0 mm
11:00 AM 57.7°F14.3°C 49.1°F9.5°C 73% 8.9 mph E14.3 kmh E 16.1 mph25.9 kmh 29.89 in1012.2 mb 0.00 in0.0 mm 0.00 in0.0 mm 0.00 in0.0 mm
11:10 AM 57.9°F14.4°C 48.9°F9.4°C 72% 10.1 mph E16.3 kmh E 17.5 mph28.2 kmh 29.89 in1012.2 mb 0.00 in0.0 mm 0.00 in0.0 mm 0.00 in0.0 mm
11:20 AM 58.1°F14.5°C 49.1°F9.5°C 72% 8.5 mph E13.7 kmh E 14.3 mph23.0 kmh 29.89 in1012.2 mb 0.00 in0.0 mm 0.00 in0.0 mm 0.00 in0.0 mm
11:30 AM 58.3°F14.6°C 49.3°F9.6°C 72% 7.8 mph E12.6 kmh E 12.5 mph20.1 kmh 29.89 in1012.2 mb 0.00 in0.0 mm 0.00 in0.0 mm 0.00 in0.0 mm
11:40 AM 58.5°F14.7°C 49.5°F9.7°C 72% 7.9 mph E12.7 kmh E 13.6 mph21.9 kmh 29.89 in1012.2 mb 0.00 in0.0 mm 0.00 in0.0 mm 0.00 in0.0 mm
11:50 AM 58.8°F14.9°C 49.8°F9.9°C 72% 7.8 mph E12.6 kmh E 15.4 mph24.8 kmh 29.89 in1012.2 mb 0.00 in0.0 mm 0.00 in0.0 mm 0.00 in0.0 mm
12:00 PM 59.2°F15.1°C 49.8°F9.9°C 71% 8.1 mph E13.0 kmh E 14.0 mph22.5 kmh 29.89 in1012.2 mb 0.00 in0.0 mm 0.00 in0.0 mm 0.00 in0.0 mm
12:10 PM 59.5°F15.3°C 50.1°F10.1°C 71% 8.7 mph E14.0 kmh E 17.2 mph27.7 kmh 29.89 in1012.2 mb 0.00 in0.0 mm 0.00 in0.0 mm 0.00 in0.0 mm
12:20 PM 59.5°F15.3°C 49.4°F9.7°C 69% 10.2 mph E16.4 kmh E 20.8 mph33.5 kmh 29.89 in1012.2 mb 0.00 in0.0 mm 0.00 in0.0 mm 0.00 in0.0 mm
12:30 PM 59.5°F15.3°C 49.4°F9.7°C 69% 8.6 mph E13.8 kmh E 16.1 mph25.9 kmh 29.89 in1012.2 mb 0.00 in0.0 mm 0.00 in0.0 mm 0.00 in0.0 mm
12:40 PM 59.5°F15.3°C 49.0°F9.4°C 68% 6.5 mph ESE10.5 kmh ESE 16.1 mph25.9 kmh 29.89 in1012.2 mb 0.00 in0.0 mm 0.00 in0.0 mm 0.00 in0.0 mm
12:50 PM 59.7°F15.4°C 49.1°F9.5°C 68% 10.6 mph ESE17.1 kmh ESE 17.2 mph27.7 kmh 29.89 in1012.2 mb 0.00 in0.0 mm 0.00 in0.0 mm 0.00 in0.0 mm
01:00 PM 60.1°F15.6°C 49.9°F9.9°C 69% 8.3 mph E13.4 kmh E 16.8 mph27.0 kmh 29.89 in1012.2 mb 0.00 in0.0 mm 0.00 in0.0 mm 0.00 in0.0 mm
01:10 PM 60.3°F15.7°C 49.7°F9.8°C 68% 9.1 mph SE14.6 kmh SE 15.4 mph24.8 kmh 29.89 in1012.2 mb 0.00 in0.0 mm 0.00 in0.0 mm 0.00 in0.0 mm
01:20 PM 60.3°F15.7°C 49.3°F9.6°C 67% 9.8 mph ESE15.8 kmh ESE 15.4 mph24.8 kmh 29.89 in1012.2 mb 0.00 in0.0 mm 0.00 in0.0 mm 0.00 in0.0 mm
01:30 PM 60.1°F15.6°C 49.5°F9.7°C 68% 8.7 mph E14.0 kmh E 14.0 mph22.5 kmh 29.89 in1012.2 mb 0.00 in0.0 mm 0.00 in0.0 mm 0.00 in0.0 mm
01:40 PM 60.1°F15.6°C 49.5°F9.7°C 68% 7.7 mph E12.4 kmh E 12.9 mph20.8 kmh 29.89 in1012.2 mb 0.00 in0.0 mm 0.00 in0.0 mm 0.00 in0.0 mm
01:50 PM 60.3°F15.7°C 49.3°F9.6°C 67% 10.6 mph E17.1 kmh E 20.0 mph32.2 kmh 29.89 in1012.2 mb 0.00 in0.0 mm 0.00 in0.0 mm 0.00 in0.0 mm
02:00 PM 60.4°F15.8°C 49.4°F9.7°C 67% 10.7 mph E17.2 kmh E 20.8 mph33.5 kmh 29.89 in1012.2 mb 0.00 in0.0 mm 0.00 in0.0 mm 0.00 in0.0 mm
02:10 PM 60.3°F15.7°C 49.3°F9.6°C 67% 7.9 mph ESE12.7 kmh ESE 13.6 mph21.9 kmh 29.89 in1012.2 mb 0.00 in0.0 mm 0.00 in0.0 mm 0.00 in0.0 mm
02:20 PM 60.1°F15.6°C 49.5°F9.7°C 68% 8.0 mph E12.9 kmh E 13.6 mph21.9 kmh 29.89 in1012.2 mb 0.00 in0.0 mm 0.00 in0.0 mm 0.00 in0.0 mm
02:30 PM 60.1°F15.6°C 49.5°F9.7°C 68% 7.1 mph ESE11.4 kmh ESE 11.1 mph17.9 kmh 29.89 in1012.2 mb 0.00 in0.0 mm 0.00 in0.0 mm 0.00 in0.0 mm
02:40 PM 60.3°F15.7°C 49.7°F9.8°C 68% 7.0 mph E11.3 kmh E 12.2 mph19.6 kmh 29.86 in1011.2 mb 0.00 in0.0 mm 0.00 in0.0 mm 0.00 in0.0 mm
02:50 PM 60.6°F15.9°C 50.0°F10.0°C 68% 7.2 mph E11.6 kmh E 12.9 mph20.8 kmh 29.86 in1011.2 mb 0.00 in0.0 mm 0.00 in0.0 mm 0.00 in0.0 mm
03:00 PM 61.0°F16.1°C 50.3°F10.2°C 68% 8.8 mph ESE14.2 kmh ESE 14.7 mph23.7 kmh 29.89 in1012.2 mb 0.00 in0.0 mm 0.00 in0.0 mm 0.00 in0.0 mm
03:10 PM 61.0°F16.1°C 49.9°F9.9°C 67% 8.1 mph E13.0 kmh E 10.4 mph16.7 kmh 29.89 in1012.2 mb 0.00 in0.0 mm 0.00 in0.0 mm 0.00 in0.0 mm
03:20 PM 60.8°F16.0°C 49.8°F9.9°C 67% 5.8 mph E9.3 kmh E 10.4 mph16.7 kmh 29.89 in1012.2 mb 0.00 in0.0 mm 0.00 in0.0 mm 0.00 in0.0 mm
03:30 PM 60.4°F15.8°C 49.4°F9.7°C 67% 4.0 mph E6.4 kmh E 6.1 mph9.8 kmh 29.89 in1012.2 mb 0.00 in0.0 mm 0.00 in0.0 mm 0.00 in0.0 mm
03:40 PM 59.9°F15.5°C 48.9°F9.4°C 67% 6.0 mph ESE9.7 kmh ESE 16.1 mph25.9 kmh 29.89 in1012.2 mb 0.00 in0.0 mm 0.00 in0.0 mm 0.00 in0.0 mm
03:50 PM 59.7°F15.4°C 49.1°F9.5°C 68% 9.1 mph ESE14.6 kmh ESE 12.5 mph20.1 kmh 29.89 in1012.2 mb 0.00 in0.0 mm 0.00 in0.0 mm 0.00 in0.0 mm
04:00 PM 59.5°F15.3°C 49.0°F9.4°C 68% 6.6 mph SE10.6 kmh SE 12.5 mph20.1 kmh 29.89 in1012.2 mb 0.00 in0.0 mm 0.00 in0.0 mm 0.00 in0.0 mm
04:10 PM 59.4°F15.2°C 49.2°F9.6°C 69% 7.4 mph ESE11.9 kmh ESE 12.9 mph20.8 kmh 29.89 in1012.2 mb 0.00 in0.0 mm 0.00 in0.0 mm 0.00 in0.0 mm
04:20 PM 59.2°F15.1°C 49.0°F9.4°C 69% 7.4 mph SE11.9 kmh SE 12.5 mph20.1 kmh 29.89 in1012.2 mb 0.00 in0.0 mm 0.00 in0.0 mm 0.00 in0.0 mm
04:30 PM 59.0°F15.0°C 48.8°F9.3°C 69% 7.1 mph E11.4 kmh E 15.7 mph25.3 kmh 29.89 in1012.2 mb 0.00 in0.0 mm 0.00 in0.0 mm 0.00 in0.0 mm
04:40 PM 58.8°F14.9°C 49.1°F9.5°C 70% 8.0 mph E12.9 kmh E 13.6 mph21.9 kmh 29.89 in1012.2 mb 0.00 in0.0 mm 0.00 in0.0 mm 0.00 in0.0 mm
04:50 PM 58.6°F14.8°C 48.9°F9.4°C 70% 8.0 mph ESE12.9 kmh ESE 10.4 mph16.7 kmh 29.89 in1012.2 mb 0.00 in0.0 mm 0.00 in0.0 mm 0.00 in0.0 mm
05:00 PM 58.5°F14.7°C 48.7°F9.3°C 70% 7.7 mph E12.4 kmh E 11.8 mph19.0 kmh 29.89 in1012.2 mb 0.00 in0.0 mm 0.00 in0.0 mm 0.00 in0.0 mm
05:10 PM 58.5°F14.7°C 48.7°F9.3°C 70% 8.6 mph E13.8 kmh E 12.9 mph20.8 kmh 29.89 in1012.2 mb 0.00 in0.0 mm 0.00 in0.0 mm 0.00 in0.0 mm
05:20 PM 58.3°F14.6°C 48.9°F9.4°C 71% 9.0 mph E14.5 kmh E 19.3 mph31.1 kmh 29.89 in1012.2 mb 0.00 in0.0 mm 0.00 in0.0 mm 0.00 in0.0 mm
05:30 PM 58.1°F14.5°C 48.7°F9.3°C 71% 8.1 mph E13.0 kmh E 14.3 mph23.0 kmh 29.89 in1012.2 mb 0.00 in0.0 mm 0.00 in0.0 mm 0.00 in0.0 mm
05:40 PM 57.9°F14.4°C 48.6°F9.2°C 71% 8.4 mph E13.5 kmh E 16.8 mph27.0 kmh 29.86 in1011.2 mb 0.00 in0.0 mm 0.00 in0.0 mm 0.00 in0.0 mm
05:50 PM 57.9°F14.4°C 48.6°F9.2°C 71% 6.5 mph E10.5 kmh E 16.8 mph27.0 kmh 29.86 in1011.2 mb 0.00 in0.0 mm 0.00 in0.0 mm 0.00 in0.0 mm
06:00 PM 57.7°F14.3°C 48.4°F9.1°C 71% 9.8 mph E15.8 kmh E 16.1 mph25.9 kmh 29.86 in1011.2 mb 0.00 in0.0 mm 0.00 in0.0 mm 0.00 in0.0 mm
06:10 PM 57.7°F14.3°C 48.0°F8.9°C 70% 9.4 mph ESE15.1 kmh ESE 16.1 mph25.9 kmh 29.86 in1011.2 mb 0.00 in0.0 mm 0.00 in0.0 mm 0.00 in0.0 mm
06:20 PM 57.7°F14.3°C 48.0°F8.9°C 70% 10.1 mph ESE16.3 kmh ESE 16.1 mph25.9 kmh 29.86 in1011.2 mb 0.00 in0.0 mm 0.00 in0.0 mm 0.00 in0.0 mm
06:30 PM 57.6°F14.2°C 47.8°F8.8°C 70% 9.2 mph E14.8 kmh E 16.1 mph25.9 kmh 29.86 in1011.2 mb 0.00 in0.0 mm 0.00 in0.0 mm 0.00 in0.0 mm
06:40 PM 57.4°F14.1°C 47.7°F8.7°C 70% 8.2 mph E13.2 kmh E 12.2 mph19.6 kmh 29.86 in1011.2 mb 0.00 in0.0 mm 0.00 in0.0 mm 0.00 in0.0 mm
06:50 PM 57.4°F14.1°C 47.3°F8.5°C 69% 7.0 mph E11.3 kmh E 13.6 mph21.9 kmh 29.86 in1011.2 mb 0.00 in0.0 mm 0.00 in0.0 mm 0.00 in0.0 mm
07:00 PM 57.2°F14.0°C 47.1°F8.4°C 69% 5.4 mph E8.7 kmh E 13.6 mph21.9 kmh 29.86 in1011.2 mb 0.00 in0.0 mm 0.00 in0.0 mm 0.00 in0.0 mm
07:10 PM 57.0°F13.9°C 46.9°F8.3°C 69% 8.1 mph E13.0 kmh E 12.9 mph20.8 kmh 29.86 in1011.2 mb 0.00 in0.0 mm 0.00 in0.0 mm 0.00 in0.0 mm
07:20 PM 56.8°F13.8°C 46.8°F8.2°C 69% 7.8 mph E12.6 kmh E 10.4 mph16.7 kmh 29.86 in1011.2 mb 0.00 in0.0 mm 0.00 in0.0 mm 0.00 in0.0 mm
07:30 PM 56.7°F13.7°C 47.0°F8.3°C 70% 8.6 mph E13.8 kmh E 12.5 mph20.1 kmh 29.86 in1011.2 mb 0.00 in0.0 mm 0.00 in0.0 mm 0.00 in0.0 mm
07:40 PM 56.5°F13.6°C 46.8°F8.2°C 70% 8.6 mph E13.8 kmh E 12.5 mph20.1 kmh 29.86 in1011.2 mb 0.00 in0.0 mm 0.00 in0.0 mm 0.00 in0.0 mm
07:50 PM 56.5°F13.6°C 46.4°F8.0°C 69% 8.4 mph E13.5 kmh E 14.0 mph22.5 kmh 29.86 in1011.2 mb 0.00 in0.0 mm 0.00 in0.0 mm 0.00 in0.0 mm
08:00 PM 56.3°F13.5°C 46.3°F7.9°C 69% 9.6 mph ESE15.4 kmh ESE 20.0 mph32.2 kmh 29.86 in1011.2 mb 0.00 in0.0 mm 0.00 in0.0 mm 0.00 in0.0 mm
08:10 PM 56.3°F13.5°C 46.3°F7.9°C 69% 7.4 mph E11.9 kmh E 13.6 mph21.9 kmh 29.86 in1011.2 mb 0.00 in0.0 mm 0.00 in0.0 mm 0.00 in0.0 mm
08:20 PM 56.1°F13.4°C 46.5°F8.1°C 70% 7.7 mph ESE12.4 kmh ESE 13.6 mph21.9 kmh 29.86 in1011.2 mb 0.00 in0.0 mm 0.00 in0.0 mm 0.00 in0.0 mm
08:30 PM 55.9°F13.3°C 46.7°F8.2°C 71% 9.2 mph E14.8 kmh E 16.1 mph25.9 kmh 29.89 in1012.2 mb 0.00 in0.0 mm 0.00 in0.0 mm 0.00 in0.0 mm
08:40 PM 55.9°F13.3°C 47.0°F8.3°C 72% 8.6 mph E13.8 kmh E 16.8 mph27.0 kmh 29.86 in1011.2 mb 0.00 in0.0 mm 0.00 in0.0 mm 0.00 in0.0 mm
08:50 PM 55.8°F13.2°C 47.6°F8.7°C 74% 7.5 mph E12.1 kmh E 16.5 mph26.6 kmh 29.86 in1011.2 mb 0.00 in0.0 mm 0.00 in0.0 mm 0.00 in0.0 mm
09:00 PM 55.6°F13.1°C 48.1°F8.9°C 76% 8.5 mph E13.7 kmh E 21.1 mph34.0 kmh 29.86 in1011.2 mb 0.00 in0.0 mm 0.00 in0.0 mm 0.00 in0.0 mm
09:10 PM 55.6°F13.1°C 48.5°F9.2°C 77% 10.8 mph ESE17.4 kmh ESE 22.5 mph36.2 kmh 29.86 in1011.2 mb 0.00 in0.0 mm 0.00 in0.0 mm 0.00 in0.0 mm
09:20 PM 55.4°F13.0°C 48.7°F9.3°C 78% 8.6 mph E13.8 kmh E 20.0 mph32.2 kmh 29.86 in1011.2 mb 0.00 in0.0 mm 0.00 in0.0 mm 0.00 in0.0 mm
09:30 PM 55.2°F12.9°C 48.8°F9.3°C 79% 9.5 mph E15.3 kmh E 16.1 mph25.9 kmh 29.86 in1011.2 mb 0.00 in0.0 mm 0.00 in0.0 mm 0.00 in0.0 mm
09:40 PM 55.2°F12.9°C 49.2°F9.6°C 80% 6.4 mph ESE10.3 kmh ESE 15.4 mph24.8 kmh 29.86 in1011.2 mb 0.00 in0.0 mm 0.00 in0.0 mm 0.00 in0.0 mm
09:50 PM 55.4°F13.0°C 49.7°F9.8°C 81% 8.2 mph E13.2 kmh E 16.1 mph25.9 kmh 29.86 in1011.2 mb 0.00 in0.0 mm 0.00 in0.0 mm 0.00 in0.0 mm
10:00 PM 55.4°F13.0°C 50.0°F10.0°C 82% 7.8 mph ESE12.6 kmh ESE 15.4 mph24.8 kmh 29.86 in1011.2 mb 0.00 in0.0 mm 0.00 in0.0 mm 0.00 in0.0 mm
10:10 PM 55.4°F13.0°C 50.0°F10.0°C 82% 8.1 mph E13.0 kmh E 17.2 mph27.7 kmh 29.86 in1011.2 mb 0.00 in0.0 mm 0.00 in0.0 mm 0.00 in0.0 mm
10:20 PM 55.4°F13.0°C 50.0°F10.0°C 82% 7.3 mph SE11.7 kmh SE 15.7 mph25.3 kmh 29.86 in1011.2 mb 0.00 in0.0 mm 0.00 in0.0 mm 0.00 in0.0 mm
10:30 PM 55.4°F13.0°C 50.0°F10.0°C 82% 6.9 mph E11.1 kmh E 15.0 mph24.1 kmh 29.86 in1011.2 mb 0.00 in0.0 mm 0.00 in0.0 mm 0.00 in0.0 mm
10:40 PM 55.2°F12.9°C 49.8°F9.9°C 82% 10.7 mph E17.2 kmh E 20.0 mph32.2 kmh 29.83 in1010.2 mb 0.00 in0.0 mm 0.00 in0.0 mm 0.00 in0.0 mm
10:50 PM 55.0°F12.8°C 49.6°F9.8°C 82% 8.3 mph E13.4 kmh E 24.7 mph39.8 kmh 29.83 in1010.2 mb 0.00 in0.0 mm 0.00 in0.0 mm 0.00 in0.0 mm
11:00 PM 55.0°F12.8°C 49.6°F9.8°C 82% 10.6 mph E17.1 kmh E 21.1 mph34.0 kmh 29.86 in1011.2 mb 0.00 in0.0 mm 0.00 in0.0 mm 0.00 in0.0 mm
11:10 PM 54.7°F12.6°C 49.3°F9.6°C 82% 9.9 mph ESE15.9 kmh ESE 17.5 mph28.2 kmh 29.83 in1010.2 mb 0.00 in0.0 mm 0.00 in0.0 mm 0.00 in0.0 mm
11:20 PM 54.7°F12.6°C 49.3°F9.6°C 82% 9.6 mph E15.4 kmh E 17.5 mph28.2 kmh 29.83 in1010.2 mb 0.00 in0.0 mm 0.00 in0.0 mm 0.00 in0.0 mm
11:30 PM 54.5°F12.5°C 49.1°F9.5°C 82% 7.1 mph E11.4 kmh E 12.9 mph20.8 kmh 29.83 in1010.2 mb 0.00 in0.0 mm 0.00 in0.0 mm 0.00 in0.0 mm
11:40 PM 54.7°F12.6°C 49.6°F9.8°C 83% 9.1 mph E14.6 kmh E 16.5 mph26.6 kmh 29.83 in1010.2 mb 0.00 in0.0 mm 0.00 in0.0 mm 0.00 in0.0 mm
11:50 PM 54.7°F12.6°C 49.6°F9.8°C 83% 8.5 mph E13.7 kmh E 25.8 mph41.5 kmh 29.83 in1010.2 mb 0.00 in0.0 mm 0.00 in0.0 mm 0.00 in0.0 mm